Time;durP1;ratioP1;P1;durP2;ratioP2;P2;SDS_P1;SDS_P2;PMS_P1;PMS_P2;Temp;Humidity;BMP_temperature;BMP_pressure;BME280_temperature;BME280_humidity;BME280_pressure;Samples;Min_cycle;Max_cycle;Signal;HPM_P1;HPM_P2
2023/06/16 00:01:43;;;;;;;3.37;2.40;;;;;;;19.15;76.23;99578.50;6194644;28;20182;-72
2023/06/16 00:04:44;;;;;;;5.47;2.47;;;;;;;19.04;75.33;99569.88;6195926;28;20095;-72
2023/06/16 00:07:45;;;;;;;3.57;2.40;;;;;;;19.01;76.11;99557.00;6194941;28;20137;-72
2023/06/16 00:10:46;;;;;;;9.00;2.50;;;;;;;19.10;76.42;99565.78;6194306;28;20103;-73
2023/06/16 00:13:48;;;;;;;2.60;2.20;;;;;;;19.10;76.77;99568.41;6194495;28;20046;-72
2023/06/16 00:16:49;;;;;;;;;;;;;;;19.08;76.81;99559.81;6195129;28;20054;-72
2023/06/16 00:19:50;;;;;;;4.05;2.72;;;;;;;19.16;76.23;99553.72;6195733;28;19933;-73
2023/06/16 00:22:51;;;;;;;4.57;2.57;;;;;;;19.16;76.85;99554.56;6194420;28;20550;-72
2023/06/16 00:25:51;;;;;;;3.08;2.13;;;;;;;19.15;76.99;99550.25;6194609;28;20046;-72
2023/06/16 00:28:55;;;;;;;3.05;2.30;;;;;;;18.98;77.02;99543.25;6195282;28;20137;-72
2023/06/16 00:31:56;;;;;;;4.15;2.10;;;;;;;19.07;78.64;99547.59;6195492;28;20061;-72
2023/06/16 00:34:57;;;;;;;4.00;2.50;;;;;;;19.05;77.52;99541.66;6195368;28;20054;-72
2023/06/16 00:37:57;;;;;;;3.42;2.50;;;;;;;19.03;77.88;99555.00;6296061;28;20100;-72
2023/06/16 00:40:59;;;;;;;4.13;2.33;;;;;;;19.05;77.69;99549.56;6195217;28;20065;-73
2023/06/16 00:44:02;;;;;;;4.85;2.58;;;;;;;19.03;77.89;99546.25;6194211;28;20062;-72
2023/06/16 00:47:03;;;;;;;8.50;2.35;;;;;;;18.96;77.54;99551.34;6194105;28;20050;-72
2023/06/16 00:50:04;;;;;;;2.50;2.17;;;;;;;18.98;79.11;99551.19;6195012;28;20143;-72
2023/06/16 00:53:05;;;;;;;2.97;2.40;;;;;;;18.88;78.88;99548.66;6194953;28;20218;-72
2023/06/16 00:56:05;;;;;;;4.07;2.33;;;;;;;18.93;78.97;99536.63;6194055;28;20050;-72
2023/06/16 00:59:07;;;;;;;5.67;2.50;;;;;;;19.13;79.96;99544.31;6193553;28;20414;-72
2023/06/16 01:02:08;;;;;;;2.67;2.10;;;;;;;19.10;79.12;99540.16;6194711;28;20474;-72
2023/06/16 01:05:09;;;;;;;2.70;2.22;;;;;;;19.13;80.22;99542.50;6193923;28;20055;-72
2023/06/16 01:08:15;;;;;;;4.47;2.47;;;;;;;19.14;79.43;99535.38;6194704;28;20519;-72
2023/06/16 01:11:35;;;;;;;3.70;2.40;;;;;;;19.17;80.23;99534.22;6196878;28;20077;-73
2023/06/16 01:15:09;;;;;;;2.45;2.17;;;;;;;19.16;80.59;99533.41;6197857;28;20058;-72
2023/06/16 01:18:14;;;;;;;3.20;2.42;;;;;;;19.07;80.62;99534.38;6197955;28;20051;-72
2023/06/16 01:21:43;;;;;;;4.60;2.47;;;;;;;18.95;82.67;99528.56;6197951;28;20474;-72
2023/06/16 01:24:45;;;;;;;3.22;2.40;;;;;;;19.00;82.65;99534.16;6198731;28;20482;-72
2023/06/16 01:27:47;;;;;;;5.30;2.50;;;;;;;19.01;82.20;99529.72;6197801;28;20137;-72
2023/06/16 01:30:50;;;;;;;4.05;2.53;;;;;;;18.89;83.78;99519.44;6197233;28;20510;-72
2023/06/16 01:33:51;;;;;;;3.85;2.70;;;;;;;18.80;84.32;99528.34;6197640;28;20046;-72
2023/06/16 01:36:54;;;;;;;4.80;2.60;;;;;;;18.92;84.25;99520.94;6198686;28;20103;-72
2023/06/16 01:39:55;;;;;;;4.05;2.72;;;;;;;18.61;85.02;99516.16;6197031;28;20505;-71
2023/06/16 01:42:58;;;;;;;4.45;2.60;;;;;;;18.81;84.63;99526.53;6196625;28;20391;-71
2023/06/16 01:45:59;;;;;;;4.30;2.83;;;;;;;18.77;85.30;99519.88;6198105;28;20486;-71
2023/06/16 01:49:01;;;;;;;3.33;2.42;;;;;;;18.78;86.00;99519.72;6198725;28;20069;-71
2023/06/16 01:52:02;;;;;;;;;;;;;;;18.56;88.67;99521.09;6197528;28;20050;-71
2023/06/16 01:55:03;;;;;;;5.75;2.28;;;;;;;18.59;88.51;99515.47;6198441;28;19921;-72
2023/06/16 01:58:06;;;;;;;5.20;2.90;;;;;;;18.61;88.83;99510.03;6196990;28;20478;-72
2023/06/16 02:01:13;;;;;;;4.47;2.65;;;;;;;18.65;90.45;99512.22;6198269;28;20050;-71
2023/06/16 02:04:18;;;;;;;3.78;2.60;;;;;;;18.61;91.46;99507.41;6197062;28;20054;-71
2023/06/16 02:07:24;;;;;;;4.30;3.03;;;;;;;18.51;91.37;99510.16;6196882;28;20054;-72
2023/06/16 02:10:26;;;;;;;3.58;2.45;;;;;;;18.57;90.74;99506.88;6196786;28;20089;-71
2023/06/16 02:13:30;;;;;;;3.53;2.65;;;;;;;18.56;91.91;99501.78;6198410;28;20100;-72
2023/06/16 02:16:44;;;;;;;8.30;3.30;;;;;;;18.35;94.09;99504.81;6197925;28;20398;-71
2023/06/16 02:19:45;;;;;;;4.78;3.00;;;;;;;18.35;95.51;99510.09;6196818;28;20137;-71
2023/06/16 02:22:46;;;;;;;4.90;2.50;;;;;;;18.45;96.38;99505.50;6197488;28;20108;-71
2023/06/16 02:25:47;;;;;;;4.93;2.87;;;;;;;18.39;97.59;99503.50;6197972;28;20058;-71
2023/06/16 02:28:48;;;;;;;3.57;2.57;;;;;;;18.23;97.47;99496.34;6196649;28;20073;-71
2023/06/16 02:31:50;;;;;;;4.57;3.03;;;;;;;18.12;96.59;99498.25;6196387;28;20046;-71
2023/06/16 02:34:52;;;;;;;;;;;;;;;18.16;97.70;99497.94;6198056;28;20077;-71
2023/06/16 02:37:53;;;;;;;;;;;;;;;18.00;97.65;99496.84;6197909;28;20373;-71
2023/06/16 02:40:54;;;;;;;3.67;2.67;;;;;;;18.01;99.33;99498.50;6197523;28;19922;-71
2023/06/16 02:43:55;;;;;;;3.70;2.80;;;;;;;18.08;99.59;99490.81;6197528;28;20501;-70
2023/06/16 02:46:57;;;;;;;6.22;2.80;;;;;;;18.00;99.22;99491.56;6197510;28;20295;-71
2023/06/16 02:49:58;;;;;;;4.68;3.00;;;;;;;18.07;99.84;99491.78;6196856;28;20054;-71
2023/06/16 02:53:00;;;;;;;5.63;3.23;;;;;;;18.15;99.83;99494.47;6197072;28;20091;-71
2023/06/16 02:56:00;;;;;;;5.03;3.13;;;;;;;18.02;99.25;99502.00;6196736;28;20065;-71
2023/06/16 02:59:01;;;;;;;5.40;2.80;;;;;;;17.86;100.00;99503.50;6197037;28;20490;-71
2023/06/16 03:02:03;;;;;;;4.70;3.30;;;;;;;17.96;100.00;99502.59;6197046;28;20050;-71
2023/06/16 03:05:04;;;;;;;5.45;3.15;;;;;;;17.98;100.00;99498.00;6195542;28;20057;-71
2023/06/16 03:08:05;;;;;;;5.20;2.83;;;;;;;18.05;100.00;99491.94;6195499;28;20138;-72
2023/06/16 03:11:05;;;;;;;4.85;3.30;;;;;;;18.08;100.00;99496.91;6195452;28;20058;-71
2023/06/16 03:14:07;;;;;;;4.70;3.30;;;;;;;18.04;99.88;99494.75;6196794;28;20058;-71
2023/06/16 03:17:07;;;;;;;5.27;3.13;;;;;;;18.21;100.00;99498.31;6196442;28;20055;-72
2023/06/16 03:20:09;;;;;;;3.78;2.75;;;;;;;18.25;100.00;99499.66;6195563;28;20050;-71
2023/06/16 03:23:12;;;;;;;4.65;2.88;;;;;;;18.15;99.44;99493.66;6196290;28;20046;-71
2023/06/16 03:26:13;;;;;;;5.78;3.17;;;;;;;18.27;99.35;99497.69;6195334;28;20054;-73
2023/06/16 03:29:14;;;;;;;4.82;3.08;;;;;;;18.17;100.00;99494.31;6195222;28;20043;-71
2023/06/16 03:32:15;;;;;;;4.60;3.05;;;;;;;18.07;100.00;99497.06;6194267;28;20054;-72
2023/06/16 03:35:17;;;;;;;4.00;3.00;;;;;;;18.16;100.00;99504.06;6196814;28;20055;-71
2023/06/16 03:38:20;;;;;;;6.70;3.30;;;;;;;18.10;100.00;99505.50;6195256;28;20386;-71
2023/06/16 03:41:23;;;;;;;4.38;3.05;;;;;;;18.15;100.00;99504.22;6195498;28;20061;-71
2023/06/16 03:44:26;;;;;;;4.88;2.90;;;;;;;18.05;100.00;99506.94;6195338;28;20054;-71
2023/06/16 03:47:29;;;;;;;5.63;3.20;;;;;;;18.00;100.00;99507.41;6196331;28;20473;-72
2023/06/16 03:50:32;;;;;;;7.15;3.25;;;;;;;17.79;100.00;99507.72;6194982;28;20104;-72
2023/06/16 03:53:32;;;;;;;4.18;2.95;;;;;;;17.94;100.00;99494.00;6196231;28;20058;-72
2023/06/16 03:56:33;;;;;;;4.43;2.75;;;;;;;18.10;100.00;99496.75;6194896;28;20085;-71
2023/06/16 03:59:34;;;;;;;4.95;2.80;;;;;;;18.06;100.00;99503.34;6195920;28;20066;-71
2023/06/16 04:02:36;;;;;;;4.72;2.95;;;;;;;18.22;100.00;99503.44;6194843;28;20081;-71
2023/06/16 04:05:37;;;;;;;4.68;2.88;;;;;;;18.11;100.00;99511.59;6195941;28;20065;-72
2023/06/16 04:08:38;;;;;;;5.37;2.93;;;;;;;17.91;100.00;99516.25;6195904;28;20126;-72
2023/06/16 04:11:40;;;;;;;5.90;3.45;;;;;;;17.85;100.00;99512.44;6296842;28;20502;-71
2023/06/16 04:14:41;;;;;;;;;;;;;;;18.05;100.00;99512.22;6196424;28;20149;-72
2023/06/16 04:17:41;;;;;;;3.67;2.63;;;;;;;17.91;100.00;99517.09;6195717;28;19922;-71
2023/06/16 04:20:45;;;;;;;3.78;2.97;;;;;;;18.05;100.00;99514.88;6194694;28;20350;-71
2023/06/16 04:23:46;;;;;;;3.95;3.17;;;;;;;18.20;100.00;99513.31;6195598;28;20058;-71
2023/06/16 04:26:48;;;;;;;4.88;3.00;;;;;;;18.39;100.00;99512.28;6194630;28;20054;-72
2023/06/16 04:29:50;;;;;;;6.72;3.80;;;;;;;18.44;100.00;99515.25;6195701;28;20103;-71
2023/06/16 04:32:50;;;;;;;4.72;2.80;;;;;;;18.48;100.00;99500.75;6201865;28;20061;-71
2023/06/16 04:35:51;;;;;;;3.97;2.80;;;;;;;18.49;100.00;99512.13;6219268;28;20413;-71
2023/06/16 04:38:53;;;;;;;7.05;3.33;;;;;;;18.57;99.83;99509.53;6218971;28;20387;-71
2023/06/16 04:41:55;;;;;;;5.55;3.28;;;;;;;18.58;99.91;99507.75;6219162;28;20131;-71
2023/06/16 04:44:58;;;;;;;5.05;2.88;;;;;;;18.69;99.82;99497.69;6218703;28;20087;-72
2023/06/16 04:47:59;;;;;;;8.00;3.78;;;;;;;18.84;98.86;99499.75;6219069;28;20050;-71
2023/06/16 04:51:02;;;;;;;5.43;3.17;;;;;;;18.82;98.45;99499.09;6217617;28;20057;-72
2023/06/16 04:54:03;;;;;;;4.95;3.20;;;;;;;18.75;98.13;99501.50;6217663;28;20050;-71
2023/06/16 04:57:04;;;;;;;4.22;2.97;;;;;;;18.68;99.58;99496.06;6217550;28;20126;-71
2023/06/16 05:00:07;;;;;;;6.20;2.83;;;;;;;18.99;96.97;99494.69;6218307;28;20057;-71
2023/06/16 05:03:08;;;;;;;5.35;2.95;;;;;;;18.96;96.39;99492.38;6217466;28;20049;-71
2023/06/16 05:06:10;;;;;;;3.93;3.00;;;;;;;19.05;96.12;99494.06;6217356;28;20050;-71
2023/06/16 05:09:10;;;;;;;8.77;3.10;;;;;;;18.95;96.03;99494.19;6217427;28;20081;-72
2023/06/16 05:12:11;;;;;;;5.57;2.97;;;;;;;19.12;95.71;99503.81;6217093;28;20060;-71
2023/06/16 05:15:12;;;;;;;9.48;3.28;;;;;;;19.37;93.28;99506.47;6217828;28;20409;-71
2023/06/16 05:18:12;;;;;;;3.53;2.55;;;;;;;19.42;94.00;99504.19;6216028;28;20041;-71
2023/06/16 05:21:13;;;;;;;5.30;3.03;;;;;;;19.60;93.01;99505.84;6217321;28;20494;-71
2023/06/16 05:24:14;;;;;;;7.25;2.97;;;;;;;19.63;92.29;99506.34;6215876;28;20144;-72
2023/06/16 05:27:15;;;;;;;5.53;3.17;;;;;;;19.47;92.50;99493.09;6217392;28;20240;-72
2023/06/16 05:30:16;;;;;;;5.63;2.90;;;;;;;19.71;92.22;99503.72;6217758;28;20057;-72
2023/06/16 05:33:17;;;;;;;5.10;2.88;;;;;;;19.66;91.39;99499.88;6217936;28;20408;-71
2023/06/16 05:36:20;;;;;;;4.85;2.85;;;;;;;19.95;91.27;99502.03;6218042;28;20050;-71
2023/06/16 05:39:20;;;;;;;4.45;2.50;;;;;;;20.23;90.28;99501.69;6216913;28;20129;-71
2023/06/16 05:42:21;;;;;;;4.27;2.70;;;;;;;20.29;87.65;99506.28;6217059;28;20068;-71
2023/06/16 05:45:22;;;;;;;4.73;2.73;;;;;;;20.34;86.78;99511.91;6217736;28;20046;-71
2023/06/16 05:48:22;;;;;;;4.20;2.78;;;;;;;20.52;86.79;99520.44;6217959;28;20045;-71
2023/06/16 05:51:23;;;;;;;4.87;2.60;;;;;;;20.57;86.30;99521.75;6216777;28;20061;-71
2023/06/16 05:54:24;;;;;;;3.30;2.63;;;;;;;20.06;85.03;99514.94;6217321;28;20068;-71
2023/06/16 05:57:25;;;;;;;3.97;2.57;;;;;;;20.01;85.74;99519.91;6220077;28;20396;-72
2023/06/16 06:00:26;;;;;;;3.28;2.38;;;;;;;20.28;83.92;99525.81;6220774;28;20061;-71
2023/06/16 06:03:29;;;;;;;3.50;2.42;;;;;;;20.51;84.70;99526.75;6222032;28;20394;-71
2023/06/16 06:06:30;;;;;;;4.88;2.80;;;;;;;20.37;84.71;99522.16;6221798;28;20050;-72
2023/06/16 06:09:31;;;;;;;4.27;2.60;;;;;;;20.32;85.67;99524.47;6220721;28;20046;-72
2023/06/16 06:12:31;;;;;;;5.17;3.10;;;;;;;20.38;87.33;99521.16;6220592;28;20111;-73
2023/06/16 06:15:32;;;;;;;4.07;2.83;;;;;;;20.23;86.89;99523.69;6220480;28;20053;-71
2023/06/16 06:18:33;;;;;;;5.33;3.07;;;;;;;20.39;87.62;99519.34;6215962;28;20081;-72
2023/06/16 06:21:35;;;;;;;3.63;2.70;;;;;;;20.25;86.50;99523.53;6211627;28;20395;-72
2023/06/16 06:24:39;;;;;;;7.00;3.35;;;;;;;20.42;85.92;99516.34;6325924;28;20047;-73
2023/06/16 06:27:40;;;;;;;3.40;2.58;;;;;;;20.62;83.63;99515.00;6227894;28;20045;-71
2023/06/16 06:30:41;;;;;;;4.93;2.70;;;;;;;20.40;84.76;99515.69;6224544;28;20078;-72
2023/06/16 06:33:41;;;;;;;4.10;2.53;;;;;;;20.10;85.26;99521.56;6201006;28;20046;-72
2023/06/16 06:36:42;;;;;;;4.27;2.70;;;;;;;20.48;84.44;99516.50;6210166;28;20501;-71
2023/06/16 06:39:43;;;;;;;7.83;2.67;;;;;;;20.28;84.25;99516.06;6263869;28;20517;-71
2023/06/16 06:42:46;;;;;;;5.40;2.65;;;;;;;20.80;81.51;99514.75;6231383;28;20050;-71
2023/06/16 06:45:49;;;;;;;4.00;2.70;;;;;;;20.71;80.66;99505.16;6257004;28;20054;-72
2023/06/16 06:48:50;;;;;;;4.20;2.75;;;;;;;21.24;77.60;99497.44;6201418;28;20050;-72
2023/06/16 06:51:51;;;;;;;4.95;2.85;;;;;;;21.43;76.06;99506.78;6301793;27;20051;-71
2023/06/16 06:54:52;;;;;;;4.83;2.30;;;;;;;21.34;75.85;99498.84;6283032;28;20160;-72
2023/06/16 06:57:53;;;;;;;3.80;2.40;;;;;;;21.61;70.77;99486.06;6217914;28;20050;-71
2023/06/16 07:00:53;;;;;;;3.23;2.03;;;;;;;21.44;69.17;99489.88;6201941;28;20060;-71
2023/06/16 07:03:54;;;;;;;3.07;2.17;;;;;;;21.38;69.31;99488.72;6200467;28;20554;-71
2023/06/16 07:06:55;;;;;;;2.33;1.57;;;;;;;21.47;69.52;99492.97;6215768;28;20144;-72
2023/06/16 07:09:58;;;;;;;3.90;2.20;;;;;;;21.64;70.67;99491.03;6324356;28;20047;-71
2023/06/16 07:12:59;;;;;;;3.28;2.40;;;;;;;21.18;70.16;99482.22;6273543;28;20053;-71
2023/06/16 07:16:00;;;;;;;4.33;2.57;;;;;;;20.97;72.03;99477.56;6224395;28;20081;-73
2023/06/16 07:19:02;;;;;;;3.23;2.07;;;;;;;21.54;71.80;99479.84;6257925;28;20054;-73
2023/06/16 07:22:05;;;;;;;3.42;2.20;;;;;;;21.60;69.16;99487.09;6210935;28;20054;-71
2023/06/16 07:25:06;;;;;;;4.47;2.25;;;;;;;22.06;68.78;99480.84;6319799;28;20047;-73
2023/06/16 07:28:07;;;;;;;3.55;2.45;;;;;;;21.65;68.83;99486.53;6282684;28;20081;-72
2023/06/16 07:31:10;;;;;;;3.35;2.38;;;;;;;21.76;68.19;99478.13;6261762;28;20103;-71
2023/06/16 07:34:11;;;;;;;4.95;2.40;;;;;;;21.87;69.88;99479.56;6200544;28;20054;-72
2023/06/16 07:37:14;;;;;;;5.10;2.20;;;;;;;21.72;67.61;99477.69;6217782;28;20050;-72
2023/06/16 07:40:15;;;;;;;3.80;2.22;;;;;;;21.50;68.40;99474.06;6219651;28;20106;-72
2023/06/16 07:43:21;;;;;;;3.08;2.28;;;;;;;21.45;67.50;99472.94;6233615;28;20533;-71
2023/06/16 07:46:21;;;;;;;4.78;1.77;;;;;;;21.65;65.86;99471.44;6220392;28;20141;-71
2023/06/16 07:49:23;;;;;;;2.13;1.70;;;;;;;21.55;66.02;99478.00;6213748;28;20053;-72
2023/06/16 07:52:23;;;;;;;3.10;1.85;;;;;;;22.03;66.58;99479.38;6219131;28;20581;-73
2023/06/16 07:55:24;;;;;;;2.97;1.70;;;;;;;22.31;64.23;99482.25;6215476;28;20058;-72
2023/06/16 07:58:25;;;;;;;2.50;1.90;;;;;;;22.28;63.21;99481.81;6228463;28;20046;-72
2023/06/16 08:01:26;;;;;;;3.80;1.77;;;;;;;22.63;61.77;99482.88;6234937;28;20054;-71
2023/06/16 08:04:29;;;;;;;2.60;1.77;;;;;;;22.64;60.64;99487.19;6224135;28;20485;-71
2023/06/16 08:07:30;;;;;;;2.33;1.52;;;;;;;22.80;61.14;99488.00;6217334;28;20048;-71
2023/06/16 08:10:30;;;;;;;2.20;1.43;;;;;;;22.65;60.42;99485.34;6219169;28;20437;-71
2023/06/16 08:13:31;;;;;;;2.27;1.23;;;;;;;23.53;58.12;99483.44;6217744;28;20053;-72
2023/06/16 08:16:32;;;;;;;2.40;1.57;;;;;;;23.83;56.10;99489.44;6216293;28;20050;-72
2023/06/16 08:19:33;;;;;;;1.20;1.10;;;;;;;24.18;55.34;99484.16;6220458;28;20052;-72
2023/06/16 08:22:33;;;;;;;2.17;1.30;;;;;;;23.91;55.45;99494.63;6226481;28;20133;-73
2023/06/16 08:25:34;;;;;;;1.70;1.30;;;;;;;24.13;54.47;99478.56;6220297;28;20046;-71
2023/06/16 08:28:40;;;;;;;3.38;1.40;;;;;;;23.85;56.14;99494.59;6218758;28;20042;-72
2023/06/16 08:31:43;;;;;;;1.50;1.20;;;;;;;24.27;53.51;99474.16;6217120;28;20050;-72
2023/06/16 08:34:44;;;;;;;3.20;1.30;;;;;;;24.46;53.87;99483.28;6204945;28;20057;-72
2023/06/16 08:37:45;;;;;;;1.40;1.13;;;;;;;24.11;53.68;99476.13;6205072;28;20054;-72
2023/06/16 08:40:48;;;;;;;1.45;1.08;;;;;;;23.99;55.28;99479.50;6216177;28;20077;-73
2023/06/16 08:43:50;;;;;;;1.45;1.10;;;;;;;23.88;54.04;99480.88;6211107;28;20062;-71
2023/06/16 08:46:51;;;;;;;2.53;1.50;;;;;;;23.89;56.02;99478.03;6202527;28;20057;-72
2023/06/16 08:49:54;;;;;;;2.85;1.30;;;;;;;23.76;55.26;99474.41;6307825;28;20049;-71
2023/06/16 08:52:58;;;;;;;3.92;1.50;;;;;;;23.73;55.70;99487.09;6219589;28;20110;-73
2023/06/16 08:56:03;;;;;;;2.05;1.40;;;;;;;23.51;56.33;99477.47;6221851;28;20043;-72
2023/06/16 08:59:05;;;;;;;2.13;1.50;;;;;;;23.30;57.11;99479.13;6197214;28;20410;-73
2023/06/16 09:02:07;;;;;;;2.35;1.40;;;;;;;22.96;58.86;99484.25;6215089;28;20050;-72
2023/06/16 09:05:09;;;;;;;2.17;1.50;;;;;;;22.89;59.93;99478.88;6215590;28;20053;-71
2023/06/16 09:08:11;;;;;;;1.45;1.20;;;;;;;22.91;61.37;99484.84;6230784;28;20563;-72
2023/06/16 09:11:12;;;;;;;2.03;1.60;;;;;;;22.74;59.89;99481.56;6218377;28;20058;-71
2023/06/16 09:14:14;;;;;;;1.93;1.23;;;;;;;22.98;60.05;99480.44;6214975;28;20477;-71
2023/06/16 09:17:21;;;;;;;1.58;1.27;;;;;;;22.96;59.13;99490.44;6244479;28;20042;-71
2023/06/16 09:20:23;;;;;;;1.33;1.13;;;;;;;23.20;59.28;99496.44;6206794;28;20489;-73
2023/06/16 09:23:31;;;;;;;1.40;1.10;;;;;;;23.38;56.97;99488.84;6203750;28;20485;-72
2023/06/16 09:26:35;;;;;;;8.82;1.15;;;;;;;23.66;60.01;99491.56;6217640;28;20100;-72
2023/06/16 09:29:39;;;;;;;1.30;0.95;;;;;;;23.46;56.50;99495.88;6201530;28;20511;-71
2023/06/16 09:32:40;;;;;;;1.27;1.02;;;;;;;23.67;58.07;99489.69;6217702;28;20098;-72
2023/06/16 09:35:42;;;;;;;1.30;1.00;;;;;;;23.84;55.74;99492.94;6220879;28;20054;-72
2023/06/16 09:38:42;;;;;;;4.95;1.50;;;;;;;23.64;57.24;99482.09;6217597;28;20042;-72
2023/06/16 09:41:43;;;;;;;1.77;1.40;;;;;;;23.45;57.41;99476.44;6210555;28;20140;-71
2023/06/16 09:44:44;;;;;;;1.40;1.30;;;;;;;23.29;58.14;99476.69;6209671;28;20043;-71
2023/06/16 09:47:48;;;;;;;4.83;1.40;;;;;;;23.45;57.97;99470.25;6212089;28;20374;-72
2023/06/16 09:50:52;;;;;;;2.08;1.48;;;;;;;23.11;58.24;99475.25;6213319;28;20050;-72
2023/06/16 09:53:56;;;;;;;1.85;1.50;;;;;;;23.52;58.32;99468.50;6212206;28;20057;-71
2023/06/16 09:56:58;;;;;;;1.77;1.60;;;;;;;23.51;58.09;99467.66;6221980;28;20128;-72
2023/06/16 09:59:59;;;;;;;1.50;1.20;;;;;;;23.66;56.42;99464.91;6208937;28;20058;-71
2023/06/16 10:03:01;;;;;;;3.17;1.80;;;;;;;23.62;56.46;99470.84;6209432;28;20486;-71
2023/06/16 10:06:05;;;;;;;5.70;1.83;;;;;;;23.47;57.88;99469.06;6207161;28;20046;-71
2023/06/16 10:09:09;;;;;;;1.83;1.45;;;;;;;23.17;58.74;99476.34;6219135;28;20081;-72
2023/06/16 10:12:12;;;;;;;3.95;1.80;;;;;;;22.89;60.90;99473.56;6219807;28;20053;-72
2023/06/16 10:15:27;;;;;;;1.90;1.60;;;;;;;22.59;59.80;99464.81;6209285;28;20119;-71
2023/06/16 10:30:03;;;;;;;2.72;2.00;;;;;;;23.28;63.15;99462.53;6339959;27;20399;-71
2023/06/16 10:33:20;;;;;;;4.18;2.35;;;;;;;22.96;62.63;99468.31;6326073;28;20049;-71
2023/06/16 10:36:24;;;;;;;3.30;2.30;;;;;;;23.05;65.83;99468.03;6303879;28;20046;-71
2023/06/16 10:39:25;;;;;;;2.47;2.00;;;;;;;22.96;67.44;99469.16;6333748;28;20051;-71
2023/06/16 10:42:33;;;;;;;4.22;2.67;;;;;;;22.44;68.06;99465.66;6341457;28;20044;-70
2023/06/16 10:45:39;;;;;;;3.10;2.10;;;;;;;22.63;68.62;99464.28;6327936;28;20071;-70
2023/06/16 10:49:15;;;;;;;5.43;2.58;;;;;;;22.78;68.54;99456.25;6317861;28;20119;-70
2023/06/16 10:52:42;;;;;;;3.42;2.47;;;;;;;22.71;69.31;99458.00;6317620;28;20510;-70
2023/06/16 10:55:45;;;;;;;6.47;2.53;;;;;;;22.47;67.36;99461.81;6337183;28;20051;-70
2023/06/16 10:58:52;;;;;;;2.55;2.13;;;;;;;22.78;72.47;99463.41;6342784;28;20052;-70
2023/06/16 11:01:57;;;;;;;2.55;2.35;;;;;;;22.67;72.32;99467.38;6338082;28;20051;-69
2023/06/16 11:05:22;;;;;;;3.70;2.60;;;;;;;22.26;74.24;99463.41;6318255;28;20562;-71
2023/06/16 11:08:23;;;;;;;2.97;2.20;;;;;;;22.35;74.61;99468.63;6330729;28;20441;-71
2023/06/16 11:11:33;;;;;;;7.70;2.30;;;;;;;22.02;73.66;99458.31;6342640;28;20112;-70
2023/06/16 11:14:38;;;;;;;3.38;2.30;;;;;;;22.10;74.77;99460.88;6341968;28;20055;-70
2023/06/16 11:17:44;;;;;;;3.65;2.58;;;;;;;22.10;72.34;99467.00;6322515;28;20071;-71
2023/06/16 11:20:47;;;;;;;3.47;2.58;;;;;;;22.33;75.74;99471.44;6317189;28;20059;-70
2023/06/16 11:23:50;;;;;;;3.40;2.58;;;;;;;22.20;73.69;99464.09;6324764;28;20052;-71
2023/06/16 11:26:51;;;;;;;3.60;2.75;;;;;;;22.67;77.06;99468.22;6317487;28;20052;-70
2023/06/16 11:29:56;;;;;;;2.60;2.30;;;;;;;22.18;76.59;99471.44;6305351;28;20523;-70
2023/06/16 11:32:57;;;;;;;3.42;2.30;;;;;;;22.56;79.23;99468.66;6299310;28;20052;-71
2023/06/16 11:36:21;;;;;;;3.10;2.30;;;;;;;22.56;78.48;99471.31;6315920;28;20491;-70
2023/06/16 11:39:21;;;;;;;2.95;2.30;;;;;;;22.38;76.46;99473.53;6324098;28;20067;-71
2023/06/16 11:42:22;;;;;;;3.80;2.20;;;;;;;22.74;80.20;99466.44;6313375;28;20083;-70
2023/06/16 11:45:24;;;;;;;3.80;2.70;;;;;;;22.75;81.31;99464.59;6302483;28;20139;-71
2023/06/16 11:48:25;;;;;;;;;;;;;;;22.98;78.70;99469.78;6299469;28;20044;-70
2023/06/16 11:51:27;;;;;;;3.03;1.90;;;;;;;22.71;77.94;99473.97;6300114;28;19932;-69
2023/06/16 11:54:33;;;;;;;3.08;1.92;;;;;;;22.39;84.16;99478.69;6299900;28;20571;-70
2023/06/16 11:57:40;;;;;;;3.60;2.35;;;;;;;22.21;82.32;99473.69;6299508;28;20539;-69
2023/06/16 12:00:42;;;;;;;4.78;2.28;;;;;;;21.81;84.04;99474.97;6298710;28;20381;-69
2023/06/16 12:03:45;;;;;;;2.70;1.83;;;;;;;21.79;87.25;99471.66;6297792;28;20056;-69
2023/06/16 12:06:46;;;;;;;3.08;2.20;;;;;;;21.63;87.02;99473.44;6299627;28;20052;-70
2023/06/16 12:09:49;;;;;;;2.80;2.07;;;;;;;21.28;90.19;99475.69;6305995;28;20113;-71
2023/06/16 12:12:50;;;;;;;2.55;1.98;;;;;;;21.05;90.38;99474.84;6300694;28;20518;-71
2023/06/16 12:15:51;;;;;;;2.78;1.90;;;;;;;20.97;88.33;99480.22;6313802;28;20059;-70
2023/06/16 12:18:52;;;;;;;2.03;1.83;;;;;;;20.58;92.84;99476.56;6302739;28;20094;-71
2023/06/16 12:22:00;;;;;;;2.25;1.73;;;;;;;20.43;94.24;99473.78;6299094;28;20049;-70
2023/06/16 12:25:01;;;;;;;3.25;2.10;;;;;;;20.29;96.15;99475.31;6300599;28;20052;-70
2023/06/16 12:28:03;;;;;;;6.37;2.27;;;;;;;20.32;96.75;99477.66;6322909;28;20052;-69
2023/06/16 12:31:04;;;;;;;2.47;2.00;;;;;;;20.21;100.00;99480.66;6324334;28;20052;-69
2023/06/16 12:34:04;;;;;;;3.47;2.50;;;;;;;20.22;100.00;99477.03;6323780;28;20495;-71
2023/06/16 12:37:10;;;;;;;3.70;2.67;;;;;;;20.31;100.00;99475.16;6287668;28;20049;-71
2023/06/16 12:40:14;;;;;;;2.60;2.40;;;;;;;20.01;100.00;99476.72;6288506;28;20048;-72
2023/06/16 12:43:23;;;;;;;3.97;2.30;;;;;;;20.22;100.00;99482.31;6297909;28;20044;-71
2023/06/16 12:46:24;;;;;;;5.20;2.47;;;;;;;20.14;100.00;99482.34;6289621;28;20057;-71
2023/06/16 12:49:24;;;;;;;5.00;2.50;;;;;;;20.20;100.00;99483.47;6285233;28;20114;-71
2023/06/16 12:52:30;;;;;;;2.90;2.30;;;;;;;20.45;100.00;99484.22;6282238;28;20048;-72
2023/06/16 12:55:31;;;;;;;3.08;2.13;;;;;;;20.25;100.00;99486.44;6292844;28;20572;-71
2023/06/16 12:58:31;;;;;;;2.90;2.30;;;;;;;20.57;100.00;99485.50;6283636;28;20048;-72
2023/06/16 13:01:32;;;;;;;3.73;2.50;;;;;;;20.40;100.00;99489.19;6292600;28;20048;-72
2023/06/16 13:04:33;;;;;;;4.97;2.47;;;;;;;20.30;100.00;99478.78;6301848;28;20094;-72
2023/06/16 13:07:34;;;;;;;4.37;2.47;;;;;;;20.07;100.00;99481.34;6294172;28;20048;-71
2023/06/16 13:10:34;;;;;;;4.43;2.30;;;;;;;19.99;100.00;99486.66;6290953;28;20045;-71
2023/06/16 13:13:38;;;;;;;3.50;2.30;;;;;;;19.87;100.00;99472.94;6294503;28;20113;-71
2023/06/16 13:16:39;;;;;;;2.78;2.33;;;;;;;19.79;100.00;99478.22;6281068;28;20077;-71
2023/06/16 13:19:39;;;;;;;3.40;2.50;;;;;;;19.96;100.00;99476.41;6283322;28;20044;-72
2023/06/16 13:22:40;;;;;;;3.30;2.80;;;;;;;19.80;100.00;99467.50;6277558;28;20060;-72
2023/06/16 13:25:41;;;;;;;3.67;2.67;;;;;;;19.47;100.00;99472.75;6273204;28;20072;-72
2023/06/16 13:28:42;;;;;;;3.33;2.55;;;;;;;19.59;100.00;99469.81;6289966;28;20044;-74
2023/06/16 13:31:43;;;;;;;5.37;2.60;;;;;;;19.45;100.00;99471.28;6312072;28;20063;-73
2023/06/16 13:34:44;;;;;;;3.33;2.58;;;;;;;19.48;100.00;99461.22;6288065;28;20654;-72
2023/06/16 13:37:49;;;;;;;4.37;2.20;;;;;;;19.11;100.00;99454.56;6270806;28;20055;-72
2023/06/16 13:40:49;;;;;;;3.08;2.00;;;;;;;19.09;100.00;99456.53;6307826;28;20565;-73
2023/06/16 13:43:51;;;;;;;2.97;2.13;;;;;;;19.05;100.00;99447.28;6275471;28;20045;-72
2023/06/16 13:46:52;;;;;;;2.55;1.98;;;;;;;19.13;100.00;99446.47;6277678;28;20096;-72
2023/06/16 13:49:53;;;;;;;5.13;2.00;;;;;;;19.59;100.00;99454.75;6273189;28;20102;-72
2023/06/16 13:52:54;;;;;;;2.00;1.80;;;;;;;19.33;100.00;99453.09;6284898;28;20048;-72
2023/06/16 13:55:54;;;;;;;2.28;1.63;;;;;;;19.25;100.00;99453.09;6282481;28;20458;-72
2023/06/16 13:58:55;;;;;;;2.80;1.80;;;;;;;19.20;100.00;99450.09;6282399;28;20217;-72
2023/06/16 14:01:56;;;;;;;2.08;1.52;;;;;;;19.34;100.00;99453.94;6290599;28;20081;-72
2023/06/16 14:04:59;;;;;;;2.53;1.60;;;;;;;19.63;100.00;99452.59;6274888;28;20127;-72
2023/06/16 14:08:03;;;;;;;1.75;1.50;;;;;;;19.65;100.00;99447.97;6292445;28;20381;-72
2023/06/16 14:11:04;;;;;;;2.35;1.42;;;;;;;19.48;100.00;99450.63;6271547;28;20444;-72
2023/06/16 14:14:04;;;;;;;2.03;1.53;;;;;;;19.35;100.00;99450.28;6277503;28;20144;-72
2023/06/16 14:17:05;;;;;;;1.58;1.23;;;;;;;19.29;100.00;99443.84;6285082;28;20058;-71
2023/06/16 14:20:10;;;;;;;2.23;1.37;;;;;;;18.91;100.00;99446.09;6275897;28;20059;-72
2023/06/16 14:23:13;;;;;;;2.25;1.42;;;;;;;19.22;100.00;99445.47;6281254;28;20044;-72
2023/06/16 14:26:16;;;;;;;1.30;1.20;;;;;;;19.06;100.00;99441.00;6274231;28;20048;-72
2023/06/16 14:29:17;;;;;;;1.65;1.45;;;;;;;19.12;100.00;99435.03;6282233;28;20061;-73